Time;durP1;ratioP1;P1;durP2;ratioP2;P2;SDS_P1;SDS_P2;PMS_P1;PMS_P2;Temp;Humidity;BMP_temperature;BMP_pressure;BME280_temperature;BME280_humidity;BME280_pressure;Samples;Min_cycle;Max_cycle;Signal;HPM_P1;HPM_P2
2021/05/11 00:00:30;;;;;;;1.92;0.80;;;19.40;59.90;;;;;;4957307;29;20023;-64
2021/05/11 00:02:56;;;;;;;2.67;0.68;;;19.40;59.70;;;;;;4956685;29;20025;-62
2021/05/11 00:05:24;;;;;;;1.33;0.52;;;19.40;59.80;;;;;;4957172;29;20118;-64
2021/05/11 00:07:50;;;;;;;4.15;1.40;;;19.60;59.80;;;;;;4956857;29;20444;-64
2021/05/11 00:10:15;;;;;;;2.92;0.85;;;19.60;59.80;;;;;;4956842;29;20063;-63
2021/05/11 00:12:41;;;;;;;1.63;0.80;;;19.80;59.90;;;;;;4957039;29;20088;-63
2021/05/11 00:15:07;;;;;;;1.15;0.68;;;19.90;59.90;;;;;;4956813;29;20039;-64
2021/05/11 00:17:33;;;;;;;1.92;0.90;;;19.50;59.60;;;;;;4957027;29;20420;-63
2021/05/11 00:19:59;;;;;;;1.70;0.60;;;19.60;59.70;;;;;;4956970;29;20103;-63
2021/05/11 00:22:25;;;;;;;1.83;0.63;;;19.40;59.70;;;;;;4956717;29;20043;-63
2021/05/11 00:24:51;;;;;;;4.15;0.75;;;19.50;59.70;;;;;;4956564;28;20061;-63
2021/05/11 00:27:16;;;;;;;1.55;1.02;;;19.60;87.50;;;;;;4956867;29;20030;-64
2021/05/11 00:29:42;;;;;;;2.17;0.73;;;19.30;59.60;;;;;;4956578;29;20027;-63
2021/05/11 00:32:07;;;;;;;4.28;0.73;;;19.30;59.60;;;;;;4956504;29;20043;-64
2021/05/11 00:34:33;;;;;;;3.65;0.98;;;19.60;59.70;;;;;;4956649;29;20020;-63
2021/05/11 00:36:59;;;;;;;2.85;0.70;;;19.50;59.70;;;;;;4956465;29;20027;-64
2021/05/11 00:39:24;;;;;;;2.83;0.70;;;19.40;59.70;;;;;;4956373;29;20629;-64
2021/05/11 00:41:50;;;;;;;3.80;0.95;;;19.30;59.60;;;;;;4956189;29;20027;-64
2021/05/11 00:44:24;;;;;;;1.42;0.50;;;19.30;59.60;;;;;;4956085;29;20110;-63
2021/05/11 00:47:01;;;;;;;1.85;0.80;;;20.30;60.10;;;;;;4956069;29;20027;-64
2021/05/11 00:49:28;;;;;;;2.85;0.98;;;19.30;59.50;;;;;;4956022;29;20015;-64
2021/05/11 00:51:55;;;;;;;2.10;0.70;;;19.30;59.60;;;;;;4938656;29;20078;-64
2021/05/11 00:54:22;;;;;;;2.47;0.52;;;19.40;59.60;;;;;;4955871;29;20023;-63
2021/05/11 00:56:48;;;;;;;1.23;0.55;;;19.20;59.50;;;;;;4956010;29;20042;-63
2021/05/11 00:59:26;;;;;;;1.20;0.43;;;19.30;59.60;;;;;;4956011;29;20536;-64
2021/05/11 01:01:53;;;;;;;5.18;1.00;;;19.20;59.60;;;;;;4955843;29;20023;-65
2021/05/11 01:04:19;;;;;;;1.55;0.50;;;19.30;59.60;;;;;;4955646;29;20081;-64
2021/05/11 01:06:45;;;;;;;1.58;0.80;;;19.30;87.20;;;;;;4955940;29;20055;-64
2021/05/11 01:09:10;;;;;;;3.22;1.02;;;19.40;59.70;;;;;;4955661;29;20027;-64
2021/05/11 01:11:36;;;;;;;1.38;0.55;;;20.10;60.00;;;;;;4955691;29;20034;-64
2021/05/11 01:14:03;;;;;;;2.70;0.60;;;19.30;59.60;;;;;;4955828;29;20015;-64
2021/05/11 01:16:31;;;;;;;1.13;0.52;;;19.30;59.60;;;;;;4955665;29;20393;-64
2021/05/11 01:19:05;;;;;;;2.22;0.77;;;19.30;59.60;;;;;;4955492;29;20035;-64
2021/05/11 01:24:19;;;;;;;1.02;0.50;;;19.30;59.30;;;;;;4955626;29;20042;-64
2021/05/11 01:29:22;;;;;;;0.88;0.47;;;19.30;59.60;;;;;;4955479;29;20492;-64
2021/05/11 01:51:05;;;;;;;1.80;0.60;;;19.20;59.60;;;;;;4955244;29;20035;-63
2021/05/11 01:54:01;;;;;;;2.08;0.60;;;19.10;59.40;;;;;;4955164;29;20027;-63
2021/05/11 02:23:32;;;;;;;1.13;0.50;;;19.20;59.50;;;;;;4954837;29;20504;-64
2021/05/11 02:25:58;;;;;;;1.13;0.50;;;19.10;60.40;;;;;;4954705;29;20019;-64
2021/05/11 02:28:23;;;;;;;0.98;0.70;;;19.20;59.80;;;;;;4937225;29;20143;-64
2021/05/11 02:30:50;;;;;;;1.35;0.75;;;19.20;59.80;;;;;;4954397;29;20032;-63
2021/05/11 02:33:17;;;;;;;2.63;0.68;;;19.10;59.70;;;;;;4954405;29;20032;-64
2021/05/11 02:35:42;;;;;;;0.95;0.55;;;19.10;59.70;;;;;;4954249;29;20036;-64
2021/05/11 02:38:08;;;;;;;2.90;0.80;;;19.10;59.80;;;;;;4954421;29;20039;-64
2021/05/11 02:40:34;;;;;;;1.98;0.52;;;19.00;59.60;;;;;;4954285;29;20027;-64
2021/05/11 02:43:03;;;;;;;3.10;0.73;;;19.30;59.80;;;;;;4954325;29;20023;-64
2021/05/11 02:45:31;;;;;;;1.97;0.87;;;19.20;59.70;;;;;;4954279;29;20019;-64
2021/05/11 02:47:56;;;;;;;1.52;0.60;;;19.20;59.80;;;;;;4954555;28;20039;-64
2021/05/11 02:50:27;;;;;;;1.58;0.50;;;19.30;59.90;;;;;;4957111;29;20031;-64
2021/05/11 02:52:53;;;;;;;2.10;1.42;;;19.20;59.80;;;;;;4958356;29;20404;-64
2021/05/11 02:55:20;;;;;;;2.75;0.40;;;18.90;59.70;;;;;;4940707;29;20031;-64
2021/05/11 02:57:46;;;;;;;3.63;0.88;;;19.00;87.30;;;;;;4957930;29;20030;-65
2021/05/11 03:00:15;;;;;;;1.67;0.65;;;19.10;59.70;;;;;;4957989;29;20031;-64
2021/05/11 03:02:41;;;;;;;1.80;0.70;;;19.00;59.70;;;;;;4958202;29;20115;-64
2021/05/11 03:05:07;;;;;;;1.58;0.82;;;19.20;59.70;;;;;;4956639;29;20555;-64
2021/05/11 03:07:33;;;;;;;1.48;0.63;;;19.00;60.20;;;;;;4957944;29;20023;-64
2021/05/11 03:09:59;;;;;;;1.55;0.70;;;19.80;60.10;;;;;;4958123;29;20491;-64
2021/05/11 03:12:25;;;;;;;0.95;0.52;;;19.20;59.70;;;;;;4957784;29;20031;-64
2021/05/11 03:14:51;;;;;;;1.95;0.65;;;18.90;59.50;;;;;;4957907;29;20034;-64
2021/05/11 03:17:16;;;;;;;0.60;0.60;;;19.20;59.80;;;;;;4957924;29;20028;-64
2021/05/11 03:19:42;;;;;;;0.70;0.40;;;19.00;59.60;;;;;;4957888;29;20419;-64
2021/05/11 03:22:08;;;;;;;1.95;0.90;;;19.10;59.70;;;;;;4957541;29;20506;-64
2021/05/11 03:24:37;;;;;;;1.40;0.50;;;18.90;59.60;;;;;;4940337;29;20029;-64
2021/05/11 03:27:03;;;;;;;3.63;0.65;;;18.90;59.70;;;;;;4940327;29;20699;-64
2021/05/11 03:29:28;;;;;;;1.10;0.50;;;19.00;87.40;;;;;;4957761;29;20039;-64
2021/05/11 03:31:54;;;;;;;0.77;0.50;;;19.40;59.90;;;;;;4957424;29;20523;-64
2021/05/11 03:34:19;;;;;;;2.78;0.68;;;19.10;59.80;;;;;;4957624;29;20019;-64
2021/05/11 03:36:45;;;;;;;2.40;0.77;;;18.90;59.60;;;;;;4956125;29;20518;-64
2021/05/11 03:39:10;;;;;;;0.90;0.60;;;19.20;59.90;;;;;;4957252;29;20090;-64
2021/05/11 03:41:41;;;;;;;1.25;0.60;;;19.20;59.80;;;;;;4957245;29;20031;-64
2021/05/11 03:44:19;;;;;;;1.70;0.57;;;18.90;59.30;;;;;;4957209;29;20385;-63
2021/05/11 03:46:45;;;;;;;1.65;0.63;;;18.90;59.30;;;;;;4957413;29;20062;-64
2021/05/11 03:49:10;;;;;;;1.08;0.68;;;18.90;59.70;;;;;;4957072;29;20062;-64
2021/05/11 03:51:37;;;;;;;2.42;0.60;;;19.00;59.80;;;;;;4957298;29;20103;-64
2021/05/11 03:54:05;;;;;;;1.27;0.47;;;19.20;59.90;;;;;;4957234;29;20030;-64
2021/05/11 03:56:31;;;;;;;1.25;0.70;;;18.90;59.70;;;;;;4957167;29;20063;-64
2021/05/11 03:58:57;;;;;;;2.10;0.60;;;19.20;59.90;;;;;;4956877;29;20032;-63
2021/05/11 04:01:22;;;;;;;3.58;1.10;;;18.80;59.70;;;;;;4956640;28;20115;-64
2021/05/11 04:03:48;;;;;;;1.00;0.77;;;19.10;59.90;;;;;;4939440;29;20035;-64
2021/05/11 04:06:14;;;;;;;1.02;0.60;;;18.80;59.80;;;;;;4956808;29;20424;-64
2021/05/11 04:11:23;;;;;;;1.80;0.60;;;19.20;60.10;;;;;;4956723;29;20035;-64
2021/05/11 04:16:23;;;;;;;1.38;0.60;;;19.00;59.90;;;;;;4956803;29;20126;-64
2021/05/11 04:18:50;;;;;;;0.82;0.52;;;18.90;59.80;;;;;;4956859;29;20023;-63
2021/05/11 04:21:16;;;;;;;3.10;0.95;;;19.70;60.30;;;;;;4956499;29;20027;-63
2021/05/11 04:23:43;;;;;;;0.90;0.50;;;18.80;59.90;;;;;;4956760;29;20473;-63
2021/05/11 04:26:10;;;;;;;0.60;0.47;;;18.70;59.90;;;;;;4956602;29;20054;-63
2021/05/11 04:28:35;;;;;;;1.27;0.50;;;18.80;59.90;;;;;;4956448;29;20023;-63
2021/05/11 04:31:01;;;;;;;1.25;0.80;;;19.00;60.00;;;;;;4956515;29;20167;-64
2021/05/11 04:33:27;;;;;;;1.35;0.50;;;19.40;60.20;;;;;;4956495;29;20023;-64
2021/05/11 04:35:53;;;;;;;1.50;0.55;;;19.00;60.00;;;;;;4956154;29;20397;-63
2021/05/11 04:38:19;;;;;;;1.80;0.57;;;18.90;59.90;;;;;;4956489;29;20027;-63
2021/05/11 04:40:45;;;;;;;2.35;0.70;;;18.80;87.90;;;;;;4938883;29;20110;-64
2021/05/11 04:43:11;;;;;;;2.42;0.80;;;18.70;59.80;;;;;;4956128;29;20099;-64
2021/05/11 04:45:36;;;;;;;1.38;0.80;;;18.70;59.80;;;;;;4956055;29;20058;-64
2021/05/11 04:48:02;;;;;;;1.75;0.57;;;18.90;59.90;;;;;;4955079;29;20019;-63
2021/05/11 04:50:29;;;;;;;1.33;0.70;;;18.80;59.80;;;;;;4955977;29;20495;-64
2021/05/11 04:52:56;;;;;;;1.40;0.50;;;18.60;59.80;;;;;;4955919;29;20399;-64
2021/05/11 04:55:22;;;;;;;2.42;0.60;;;18.90;60.00;;;;;;4955904;29;20042;-64
2021/05/11 04:57:48;;;;;;;1.75;0.70;;;18.70;59.90;;;;;;4956060;29;20031;-64
2021/05/11 05:00:15;;;;;;;1.85;0.95;;;18.70;59.90;;;;;;4938536;29;20477;-64
2021/05/11 05:02:43;;;;;;;2.90;1.08;;;18.80;59.90;;;;;;4938534;29;20472;-64
2021/05/11 05:05:09;;;;;;;1.95;0.80;;;19.10;60.20;;;;;;4955623;29;20052;-63
2021/05/11 05:07:36;;;;;;;2.05;0.60;;;18.80;59.80;;;;;;4955626;29;20061;-64
2021/05/11 05:10:02;;;;;;;1.42;0.70;;;18.70;59.90;;;;;;4938400;29;20041;-64
2021/05/11 05:12:27;;;;;;;2.08;0.63;;;18.90;60.00;;;;;;4954775;28;20019;-64
2021/05/11 05:14:53;;;;;;;0.60;0.40;;;18.80;60.00;;;;;;4955710;29;20065;-63
2021/05/11 05:17:19;;;;;;;1.83;0.52;;;19.20;60.20;;;;;;4955446;29;20046;-64
2021/05/11 05:19:44;;;;;;;3.80;0.65;;;18.60;60.50;;;;;;4955422;29;20027;-64
2021/05/11 05:22:10;;;;;;;4.40;0.77;;;19.10;60.60;;;;;;4955660;29;20433;-64
2021/05/11 05:24:40;;;;;;;4.00;0.98;;;18.70;60.40;;;;;;4955383;29;20563;-64
2021/05/11 05:27:17;;;;;;;;;;;19.00;60.50;;;;;;4954941;29;20023;-64
2021/05/11 05:29:43;;;;;;;4.13;1.10;;;18.80;60.00;;;;;;4955600;29;19906;-64
2021/05/11 05:32:09;;;;;;;2.03;0.80;;;18.70;60.60;;;;;;4955462;29;20460;-64
2021/05/11 05:34:34;;;;;;;3.72;0.80;;;18.70;60.70;;;;;;4937942;29;20107;-64
2021/05/11 05:37:00;;;;;;;2.33;0.90;;;19.00;61.10;;;;;;4937955;29;20492;-64
2021/05/11 05:42:04;;;;;;;7.65;0.90;;;18.60;60.70;;;;;;4955175;29;20502;-64
2021/05/11 05:44:31;;;;;;;1.67;0.63;;;18.80;61.30;;;;;;4955060;29;20391;-65
2021/05/11 05:46:56;;;;;;;1.48;0.80;;;18.60;61.30;;;;;;4954857;29;20026;-64
2021/05/11 05:49:24;;;;;;;2.20;1.02;;;18.70;61.50;;;;;;4936599;29;20035;-65
2021/05/11 05:51:51;;;;;;;3.78;0.73;;;18.70;61.70;;;;;;4953396;29;20369;-64
2021/05/11 05:54:16;;;;;;;3.10;1.20;;;18.70;62.20;;;;;;4954968;29;20019;-64
2021/05/11 05:56:42;;;;;;;1.52;0.73;;;18.90;62.70;;;;;;4954789;29;20123;-64
2021/05/11 05:59:08;;;;;;;3.50;0.65;;;18.60;61.70;;;;;;4954960;29;20102;-66
2021/05/11 06:01:34;;;;;;;2.10;0.73;;;18.60;61.40;;;;;;4954786;29;20023;-65
2021/05/11 06:04:12;;;;;;;2.33;0.80;;;18.80;61.20;;;;;;4954718;29;20110;-66
2021/05/11 06:06:40;;;;;;;3.17;0.70;;;18.90;61.40;;;;;;4954731;29;20113;-66
2021/05/11 06:09:13;;;;;;;3.22;0.70;;;18.70;61.30;;;;;;4954739;29;20039;-66
2021/05/11 06:14:24;;;;;;;2.17;1.25;;;19.40;61.40;;;;;;4954948;29;20038;-66
2021/05/11 06:19:34;;;;;;;2.67;1.00;;;18.90;61.20;;;;;;4954833;29;20035;-66
2021/05/11 06:22:00;;;;;;;5.07;0.90;;;19.40;61.80;;;;;;4954515;29;20027;-66
2021/05/11 06:24:25;;;;;;;2.97;0.98;;;18.80;61.50;;;;;;4954151;29;20023;-66
2021/05/11 06:26:51;;;;;;;3.22;0.70;;;19.00;61.50;;;;;;4954731;29;20047;-66
2021/05/11 06:29:19;;;;;;;3.58;0.98;;;18.60;61.20;;;;;;4954701;29;20031;-66
2021/05/11 06:31:45;;;;;;;2.95;1.20;;;18.80;61.20;;;;;;4954713;29;20050;-66
2021/05/11 06:34:11;;;;;;;1.10;0.70;;;18.60;61.10;;;;;;4954644;29;20098;-65
2021/05/11 06:36:37;;;;;;;6.50;0.73;;;18.60;61.20;;;;;;4954589;29;20456;-65
2021/05/11 06:39:09;;;;;;;2.20;0.70;;;19.00;61.10;;;;;;4954606;29;20016;-65
2021/05/11 06:41:36;;;;;;;3.17;0.80;;;19.70;61.80;;;;;;4953210;29;20400;-66
2021/05/11 06:44:08;;;;;;;3.40;0.65;;;18.70;61.10;;;;;;4954593;29;20026;-66
2021/05/11 06:54:35;;;;;;;4.10;0.60;;;18.80;61.80;;;;;;4954595;29;20054;-66
2021/05/11 06:57:01;;;;;;;2.58;0.55;;;18.80;61.80;;;;;;4954148;29;20031;-67
2021/05/11 06:59:27;;;;;;;1.10;0.50;;;18.90;61.80;;;;;;4954382;29;20434;-66
2021/05/11 07:01:53;;;;;;;1.98;0.95;;;19.00;61.80;;;;;;4954237;29;20019;-67
2021/05/11 07:04:18;;;;;;;1.50;0.60;;;19.40;62.20;;;;;;4954038;29;20070;-66
2021/05/11 07:06:45;;;;;;;3.58;0.60;;;19.10;61.70;;;;;;4954340;29;20138;-66
2021/05/11 07:09:14;;;;;;;1.70;0.70;;;19.20;61.80;;;;;;4954154;29;20515;-67
2021/05/11 07:14:05;;;;;;;2.83;0.80;;;19.10;61.80;;;;;;4954119;29;20078;-66
2021/05/11 07:16:31;;;;;;;1.58;0.65;;;19.30;61.70;;;;;;4953952;29;20055;-67
2021/05/11 07:18:56;;;;;;;3.45;0.80;;;19.20;61.70;;;;;;4954019;29;20055;-66
2021/05/11 07:21:22;;;;;;;4.90;0.93;;;19.20;61.80;;;;;;4953956;29;20062;-66
2021/05/11 07:23:47;;;;;;;1.92;0.70;;;19.30;61.80;;;;;;4953972;29;20016;-67
2021/05/11 07:26:25;;;;;;;2.03;0.90;;;19.20;61.80;;;;;;4953043;29;20027;-65
2021/05/11 07:31:56;;;;;;;1.65;0.77;;;19.20;61.30;;;;;;4921528;29;20035;-66
2021/05/11 07:34:22;;;;;;;2.25;0.90;;;19.40;61.90;;;;;;4936808;28;20027;-65
2021/05/11 07:36:48;;;;;;;4.38;0.70;;;19.40;61.90;;;;;;4939603;29;20061;-65
2021/05/11 07:39:13;;;;;;;4.25;0.88;;;19.10;61.80;;;;;;4957463;29;20042;-66
2021/05/11 07:41:39;;;;;;;1.33;0.50;;;19.30;61.90;;;;;;4957254;29;20495;-67
2021/05/11 07:44:05;;;;;;;3.15;0.73;;;18.90;61.80;;;;;;4957263;29;20070;-66
2021/05/11 08:06:26;;;;;;;3.13;0.50;;;20.60;62.80;;;;;;4957106;29;20042;-67
2021/05/11 08:17:09;;;;;;;1.85;0.93;;;19.50;61.80;;;;;;4904257;29;20101;-65
2021/05/11 08:19:54;;;;;;;1.92;0.65;;;19.50;62.20;;;;;;4939387;29;20027;-65
2021/05/11 08:22:37;;;;;;;10.55;1.00;;;19.90;62.10;;;;;;4956576;29;20027;-66
2021/05/11 08:28:02;;;;;;;2.75;0.80;;;19.70;62.80;;;;;;4956794;29;20090;-66
2021/05/11 08:30:28;;;;;;;2.17;0.70;;;19.70;62.30;;;;;;4956418;29;20038;-65
2021/05/11 08:32:54;;;;;;;2.45;0.70;;;19.70;62.40;;;;;;4956443;29;20036;-66
2021/05/11 08:35:21;;;;;;;2.83;0.95;;;19.80;62.50;;;;;;4956220;29;20035;-65
2021/05/11 08:37:47;;;;;;;1.17;0.65;;;19.80;62.40;;;;;;4956243;29;20027;-66
2021/05/11 08:40:13;;;;;;;1.55;0.75;;;19.80;62.50;;;;;;4956219;29;20110;-66
2021/05/11 08:42:39;;;;;;;1.02;0.60;;;19.80;62.40;;;;;;4938983;29;20023;-65
2021/05/11 08:45:17;;;;;;;1.25;0.52;;;19.90;62.60;;;;;;4938948;29;20527;-65
2021/05/11 08:47:49;;;;;;;2.08;0.82;;;19.80;62.40;;;;;;4956138;28;20019;-65
2021/05/11 08:50:22;;;;;;;1.65;0.75;;;20.00;62.40;;;;;;4956110;29;20019;-65
2021/05/11 09:04:43;;;;;;;1.63;0.70;;;19.90;62.80;;;;;;4955774;29;20054;-67
2021/05/11 09:54:41;;;;;;;2.40;0.95;;;20.50;62.70;;;;;;4955231;29;20575;-67
2021/05/11 10:49:32;;;;;;;1.00;0.47;;;20.10;62.60;;;;;;4954648;29;20114;-68
2021/05/11 10:52:13;;;;;;;1.65;0.75;;;20.10;61.80;;;;;;4937222;29;20114;-66
2021/05/11 10:54:42;;;;;;;2.05;0.82;;;20.10;61.70;;;;;;4937071;29;20031;-67
2021/05/11 10:57:27;;;;;;;2.92;0.80;;;20.00;62.00;;;;;;4954436;29;20039;-68
2021/05/11 11:00:02;;;;;;;1.13;0.70;;;20.10;61.80;;;;;;4954116;29;20507;-67
2021/05/11 11:05:03;;;;;;;1.23;0.57;;;20.40;62.00;;;;;;4954130;29;20065;-67
2021/05/11 11:07:39;;;;;;;1.73;0.70;;;20.70;61.80;;;;;;4954166;29;20306;-68
2021/05/11 11:10:07;;;;;;;2.08;0.70;;;20.80;62.10;;;;;;4954746;28;20035;-67
2021/05/11 11:12:35;;;;;;;3.58;0.70;;;20.30;61.80;;;;;;4958094;29;20023;-67
2021/05/11 11:15:16;;;;;;;0.73;0.63;;;20.40;61.20;;;;;;4957963;29;20034;-67
2021/05/11 11:17:43;;;;;;;1.58;0.60;;;20.40;61.70;;;;;;4957832;29;20551;-67
2021/05/11 11:20:12;;;;;;;1.48;0.60;;;20.40;61.70;;;;;;4957749;29;20019;-67
2021/05/11 11:25:24;;;;;;;0.95;0.50;;;21.20;62.00;;;;;;4957768;29;20098;-67
2021/05/11 11:27:49;;;;;;;0.88;0.40;;;20.70;61.70;;;;;;4940411;29;20023;-67
2021/05/11 11:30:16;;;;;;;1.98;0.60;;;21.20;61.90;;;;;;4957452;29;20047;-67
2021/05/11 11:32:42;;;;;;;1.33;0.55;;;20.60;61.50;;;;;;4957468;29;20035;-67
2021/05/11 11:35:09;;;;;;;1.35;0.70;;;20.60;61.50;;;;;;4940028;29;20023;-67
2021/05/11 11:37:36;;;;;;;2.88;0.63;;;20.60;61.50;;;;;;4957343;29;20106;-67
2021/05/11 11:40:13;;;;;;;2.45;0.90;;;20.60;61.60;;;;;;4957383;29;20451;-65
2021/05/11 11:42:41;;;;;;;3.10;0.68;;;20.60;61.30;;;;;;4957328;29;20465;-66
2021/05/11 11:45:21;;;;;;;3.40;0.60;;;20.50;61.70;;;;;;4940026;29;20019;-66
2021/05/11 11:47:56;;;;;;;1.42;0.57;;;20.60;62.00;;;;;;4957233;29;20093;-66
2021/05/11 11:50:21;;;;;;;5.47;0.60;;;19.40;61.30;;;;;;4957322;29;20027;-67
2021/05/11 11:55:27;;;;;;;1.33;0.47;;;20.80;61.90;;;;;;4957248;29;20031;-67
2021/05/11 11:57:55;;;;;;;;;;;20.50;61.80;;;;;;4957654;29;20050;-67
2021/05/11 12:00:28;;;;;;;2.30;0.55;;;20.50;61.50;;;;;;4956957;29;19914;-66
2021/05/11 12:03:09;;;;;;;0.85;0.55;;;20.60;62.00;;;;;;4956918;29;20425;-66
2021/05/11 12:05:37;;;;;;;1.67;0.50;;;20.50;62.10;;;;;;4939824;29;20101;-66
2021/05/11 12:10:47;;;;;;;2.40;0.57;;;20.60;61.50;;;;;;4956886;29;20460;-66
2021/05/11 12:13:14;;;;;;;0.85;0.60;;;20.60;62.00;;;;;;4956865;29;20027;-67
2021/05/11 12:15:40;;;;;;;1.60;0.50;;;21.20;61.90;;;;;;4956606;29;20118;-66
2021/05/11 12:18:17;;;;;;;1.05;0.43;;;21.10;61.80;;;;;;4956882;29;20495;-67
2021/05/11 12:20:44;;;;;;;0.93;0.50;;;20.50;61.50;;;;;;4939148;28;20430;-67
2021/05/11 12:23:18;;;;;;;0.85;0.45;;;20.60;61.80;;;;;;4956817;29;20023;-67
2021/05/11 12:26:07;;;;;;;1.15;0.50;;;21.20;62.40;;;;;;4956837;29;20387;-68
2021/05/11 12:28:41;;;;;;;1.30;0.60;;;21.30;62.90;;;;;;4956564;29;20074;-68
2021/05/11 12:31:09;;;;;;;0.93;0.40;;;20.50;62.00;;;;;;4956482;29;20491;-68
2021/05/11 12:33:43;;;;;;;1.15;0.70;;;20.50;62.50;;;;;;4956654;29;20425;-67
2021/05/11 12:36:17;;;;;;;1.15;0.50;;;20.50;62.40;;;;;;4956102;29;20042;-67
2021/05/11 12:38:43;;;;;;;1.40;0.60;;;20.50;62.50;;;;;;4956336;29;20452;-67
2021/05/11 12:41:25;;;;;;;0.70;0.50;;;20.80;63.20;;;;;;4956447;29;20058;-67
2021/05/11 12:43:52;;;;;;;3.00;0.50;;;20.80;63.20;;;;;;4956261;29;20357;-67
2021/05/11 12:46:29;;;;;;;1.55;0.60;;;21.00;63.30;;;;;;4956049;29;20035;-68
2021/05/11 12:49:19;;;;;;;2.40;0.63;;;20.50;63.30;;;;;;4956338;29;20107;-67
2021/05/11 12:51:54;;;;;;;3.13;0.73;;;21.30;63.80;;;;;;4956155;29;20388;-68
2021/05/11 12:54:30;;;;;;;0.82;0.60;;;20.50;63.20;;;;;;4955995;29;20031;-67
2021/05/11 13:02:46;;;;;;;;;;;20.60;63.70;;;;;;4956547;29;20043;-67
2021/05/11 13:14:13;;;;;;;2.25;0.68;;;20.60;64.90;;;;;;4955836;29;20058;-65
2021/05/11 13:17:05;;;;;;;2.90;0.80;;;20.70;64.60;;;;;;4955831;29;20086;-65
2021/05/11 13:22:27;;;;;;;1.35;0.38;;;20.60;65.00;;;;;;4955702;29;20066;-65
2021/05/11 13:28:07;;;;;;;1.38;0.77;;;20.70;65.30;;;;;;4896071;29;20043;-65
2021/05/11 13:35:37;;;;;;;1.88;0.45;;;20.60;65.90;;;;;;4955130;29;20407;-65
2021/05/11 13:38:04;;;;;;;0.85;0.50;;;20.60;66.40;;;;;;4955250;29;20063;-65
2021/05/11 13:40:30;;;;;;;2.70;0.88;;;20.50;66.40;;;;;;4953952;29;20030;-66
2021/05/11 13:42:56;;;;;;;1.50;0.43;;;20.70;66.50;;;;;;4955154;29;20027;-66
2021/05/11 13:45:24;;;;;;;2.90;0.60;;;20.60;66.60;;;;;;4955246;29;20496;-66
2021/05/11 13:53:00;;;;;;;1.83;0.40;;;20.60;66.80;;;;;;4955170;29;20042;-66
2021/05/11 13:55:35;;;;;;;1.85;0.80;;;20.60;91.90;;;;;;4955070;29;20027;-64
2021/05/11 14:03:29;;;;;;;0.77;0.60;;;20.60;66.80;;;;;;4955028;29;20559;-66
2021/05/11 14:05:55;;;;;;;0.88;0.60;;;20.90;67.30;;;;;;4955072;29;20098;-68
2021/05/11 14:08:20;;;;;;;1.80;0.70;;;20.70;67.20;;;;;;4955150;29;20665;-67
2021/05/11 14:10:46;;;;;;;3.40;0.73;;;20.80;67.70;;;;;;4955395;29;20035;-67
2021/05/11 14:13:11;;;;;;;2.20;0.70;;;21.20;67.80;;;;;;4954998;29;20023;-65
2021/05/11 14:15:37;;;;;;;4.10;0.80;;;20.80;67.60;;;;;;4954655;29;20054;-66
2021/05/11 14:18:03;;;;;;;1.33;0.80;;;20.90;67.60;;;;;;4954972;29;20468;-67
2021/05/11 14:20:30;;;;;;;1.13;0.50;;;20.90;67.70;;;;;;4954888;29;20078;-66
2021/05/11 14:22:56;;;;;;;7.47;0.93;;;21.00;67.60;;;;;;4954883;29;20023;-64
2021/05/11 14:25:22;;;;;;;3.38;0.45;;;21.20;67.60;;;;;;4954556;29;20543;-64
2021/05/11 14:27:47;;;;;;;1.40;0.47;;;21.40;68.00;;;;;;4954534;29;20031;-64
2021/05/11 14:30:14;;;;;;;2.72;1.02;;;21.60;67.70;;;;;;4937231;29;20032;-65
2021/05/11 14:32:39;;;;;;;1.02;0.40;;;21.20;67.50;;;;;;4954558;29;20047;-65
2021/05/11 14:35:05;;;;;;;1.40;0.70;;;21.40;67.90;;;;;;4954328;29;20058;-64
2021/05/11 14:37:31;;;;;;;2.72;0.85;;;21.20;67.60;;;;;;4954669;29;20035;-65
2021/05/11 14:39:56;;;;;;;3.67;0.50;;;21.60;67.80;;;;;;4954482;29;20024;-64
2021/05/11 14:42:22;;;;;;;3.53;0.75;;;21.80;67.80;;;;;;4954364;29;20032;-66
2021/05/11 14:44:52;;;;;;;3.35;0.70;;;21.40;67.90;;;;;;4956036;28;20070;-64
2021/05/11 14:47:18;;;;;;;2.80;0.75;;;21.90;68.70;;;;;;4958263;29;20034;-61
2021/05/11 14:49:43;;;;;;;0.93;0.45;;;21.90;68.30;;;;;;4958561;29;20027;-63
2021/05/11 14:52:12;;;;;;;3.70;0.65;;;22.00;68.10;;;;;;4958258;29;20031;-64
2021/05/11 14:54:38;;;;;;;3.15;0.60;;;21.40;68.30;;;;;;4958063;29;20071;-62
2021/05/11 14:57:04;;;;;;;0.60;0.40;;;21.50;68.50;;;;;;4957949;29;20411;-63
2021/05/11 14:59:29;;;;;;;1.52;0.52;;;21.50;68.70;;;;;;4958444;29;20024;-63
2021/05/11 15:01:55;;;;;;;1.00;0.40;;;21.60;68.60;;;;;;4958466;29;20034;-66
2021/05/11 15:04:20;;;;;;;2.47;0.50;;;21.50;68.30;;;;;;4958161;29;20090;-64
2021/05/11 15:06:46;;;;;;;1.95;0.70;;;21.90;69.40;;;;;;4958197;29;20027;-66
2021/05/11 15:09:12;;;;;;;0.75;0.47;;;21.60;68.20;;;;;;4957825;29;20057;-67
2021/05/11 15:11:38;;;;;;;3.38;0.60;;;21.70;68.30;;;;;;4958032;29;20024;-66
2021/05/11 15:14:04;;;;;;;2.50;0.60;;;21.90;68.30;;;;;;4958202;29;20031;-63
2021/05/11 15:16:34;;;;;;;2.10;0.80;;;21.60;68.00;;;;;;4957692;29;20118;-64
2021/05/11 15:19:00;;;;;;;;;;;21.70;68.00;;;;;;4958247;29;20495;-64
2021/05/11 15:21:26;;;;;;;1.10;0.77;;;21.60;68.80;;;;;;4957685;29;19907;-65
2021/05/11 15:23:51;;;;;;;3.00;0.63;;;21.80;68.10;;;;;;4957936;29;20027;-65
2021/05/11 15:26:17;;;;;;;0.95;0.50;;;22.20;68.40;;;;;;4958055;29;20086;-66
2021/05/11 15:28:43;;;;;;;1.83;0.60;;;21.80;68.30;;;;;;4957756;29;20397;-65
2021/05/11 15:31:09;;;;;;;3.22;0.70;;;21.90;68.40;;;;;;4958093;29;20030;-66
2021/05/11 15:33:35;;;;;;;1.88;0.75;;;22.50;68.10;;;;;;4957846;29;20102;-66
2021/05/11 15:36:01;;;;;;;3.90;0.52;;;21.80;67.80;;;;;;4957680;29;20147;-66
2021/05/11 15:38:29;;;;;;;1.60;0.50;;;21.60;67.80;;;;;;4957359;29;20074;-66
2021/05/11 15:40:55;;;;;;;1.58;0.60;;;22.20;68.20;;;;;;4957561;29;20034;-66
2021/05/11 15:43:21;;;;;;;2.65;0.70;;;21.90;67.70;;;;;;4957276;29;20020;-66
2021/05/11 15:45:47;;;;;;;1.00;0.70;;;21.60;67.40;;;;;;4957229;29;20042;-66
2021/05/11 15:48:13;;;;;;;0.60;0.50;;;22.00;67.80;;;;;;4957491;29;20030;-67
2021/05/11 15:50:41;;;;;;;1.85;0.70;;;22.20;68.10;;;;;;4957416;29;20118;-67
2021/05/11 15:53:11;;;;;;;1.63;0.70;;;22.20;68.40;;;;;;4957155;29;20074;-66
2021/05/11 15:55:39;;;;;;;4.03;0.70;;;21.70;68.20;;;;;;4956552;28;20035;-66
2021/05/11 15:58:06;;;;;;;3.72;0.70;;;22.00;68.60;;;;;;4956882;29;20031;-65
2021/05/11 16:00:34;;;;;;;1.92;0.60;;;21.70;68.50;;;;;;4939742;29;20122;-66
2021/05/11 16:03:02;;;;;;;2.78;0.95;;;21.30;68.40;;;;;;4939489;29;20034;-66
2021/05/11 16:05:29;;;;;;;1.75;0.80;;;21.40;68.60;;;;;;4957152;29;20385;-66
2021/05/11 16:07:54;;;;;;;1.27;0.60;;;21.20;68.60;;;;;;4956917;29;20483;-66
2021/05/11 16:10:20;;;;;;;3.05;0.63;;;21.10;68.60;;;;;;4956907;29;20058;-66
2021/05/11 16:12:46;;;;;;;1.80;0.90;;;21.30;68.90;;;;;;4939561;29;20468;-66
2021/05/11 16:15:14;;;;;;;2.85;0.88;;;21.10;68.70;;;;;;4956657;29;20468;-66
2021/05/11 16:17:40;;;;;;;1.00;0.63;;;21.00;69.00;;;;;;4957135;29;20391;-66
2021/05/11 16:20:08;;;;;;;2.40;0.77;;;21.80;69.40;;;;;;4956718;29;20403;-65
2021/05/11 16:22:34;;;;;;;1.65;0.70;;;21.00;69.00;;;;;;4956925;29;20396;-65
2021/05/11 16:25:00;;;;;;;2.50;0.70;;;20.90;69.10;;;;;;4956773;29;20019;-65
2021/05/11 16:27:26;;;;;;;2.17;0.80;;;20.80;92.70;;;;;;4956558;29;20102;-65
2021/05/11 16:29:52;;;;;;;2.78;1.00;;;20.80;69.30;;;;;;4956828;29;20051;-65
2021/05/11 16:32:18;;;;;;;2.10;0.77;;;20.80;69.30;;;;;;4956488;29;20035;-65
2021/05/11 16:34:44;;;;;;;1.00;0.60;;;21.00;69.50;;;;;;4956676;29;20027;-65
2021/05/11 16:37:10;;;;;;;1.63;0.90;;;21.50;69.80;;;;;;4956589;29;20511;-65
2021/05/11 16:39:37;;;;;;;1.77;0.60;;;20.80;69.40;;;;;;4956210;29;20024;-66
2021/05/11 16:42:03;;;;;;;2.05;0.75;;;20.70;69.50;;;;;;4956554;29;20075;-65
2021/05/11 16:44:29;;;;;;;2.10;0.90;;;20.60;69.50;;;;;;4956238;29;20043;-66
2021/05/11 16:46:56;;;;;;;1.90;0.80;;;20.70;69.70;;;;;;4956131;29;20461;-66
2021/05/11 16:49:22;;;;;;;0.95;0.68;;;21.10;70.00;;;;;;4956408;29;20054;-66
2021/05/11 16:51:48;;;;;;;1.85;0.70;;;20.60;69.70;;;;;;4955952;29;20400;-66
2021/05/11 16:54:14;;;;;;;2.05;1.08;;;20.70;70.10;;;;;;4955991;29;20020;-66
2021/05/11 16:56:39;;;;;;;1.30;0.70;;;20.50;69.80;;;;;;4955923;29;20035;-66
2021/05/11 16:59:05;;;;;;;4.05;0.85;;;20.50;69.60;;;;;;4955968;29;20499;-66
2021/05/11 17:01:32;;;;;;;1.75;0.80;;;20.60;69.70;;;;;;4955787;29;20484;-66
2021/05/11 17:03:58;;;;;;;1.58;0.85;;;20.60;69.90;;;;;;4955787;29;20456;-66
2021/05/11 17:06:23;;;;;;;1.00;0.57;;;20.40;69.60;;;;;;4955790;29;20027;-66
2021/05/11 17:08:49;;;;;;;0.75;0.50;;;20.50;69.60;;;;;;4954769;28;20027;-65
2021/05/11 17:11:15;;;;;;;1.40;0.75;;;21.00;69.90;;;;;;4938526;29;20035;-66
2021/05/11 17:13:41;;;;;;;1.98;0.80;;;20.40;69.50;;;;;;4955641;29;20110;-66
2021/05/11 17:16:11;;;;;;;2.58;0.90;;;20.40;69.50;;;;;;4938287;29;20035;-65
2021/05/11 17:18:37;;;;;;;1.65;0.60;;;20.40;69.60;;;;;;4938385;29;20042;-64